aviador You're here:

LFCR Decoded Metar

RODEZ in FRANCE
Report Time2018-02-20 03:00:00
UTC Time2018-02-20 03:19:11
Flight Rules lifr LIFR
Wind310° at 11 kt
W.Decomp.*RWY 31: 11.0 kt HW 0 kt LCW
W.Rank310° ranks 1
Current wind is above 310° avg. (8.5)
Visibility9999 m
Phenomena:Light Rain
Fog
Clouds:Overcast 003 Hf
Ceiling300 ft
Temp05°C (ISA -6)
Dew Point05°C (100% RH)
AAT-0.1°C
QNH1013 hPa
Density Alt1,280 ft
Elevation1,903 ft
Report Wrong Elevation
Raw Report
LFCR 200300Z AUTO 31011KT 9999 -RA OVC003 05/05 Q1013 TEMPO 0500
FG VV///=

Extra information for LFCR:More info

Metar Taf Metar & Taf Last 4 Metars F.Rules Stats Wind Profile Meteogram Temp Stats Airport Information Weather charts Add Link Nearby VenuesMetar ALERT Operation Metar Decoded Social comments